createdAt,value
2018-09-11T00:00:06.958Z,56.30
2018-09-11T00:00:38.807Z,56.50
2018-09-11T00:01:10.640Z,56.50
2018-09-11T00:01:42.692Z,56.20
2018-09-11T00:02:14.749Z,56.30
2018-09-11T00:02:46.796Z,56.30
2018-09-11T00:03:18.582Z,56.50
2018-09-11T00:03:50.397Z,56.40
2018-09-11T00:04:22.419Z,56.50
2018-09-11T00:04:54.448Z,56.50
2018-09-11T00:05:26.338Z,56.40
2018-09-11T00:05:58.393Z,56.60
2018-09-11T00:06:30.449Z,56.40
2018-09-11T00:07:02.268Z,56.30
2018-09-11T00:07:34.111Z,56.10
2018-09-11T00:08:05.971Z,56.20
2018-09-11T00:08:38.069Z,56.40
2018-09-11T00:09:09.937Z,56.30
2018-09-11T00:09:41.808Z,56.20
2018-09-11T00:10:13.917Z,56.30
2018-09-11T00:10:45.787Z,56.30
2018-09-11T00:11:17.678Z,56.30
2018-09-11T00:11:49.737Z,56.40
2018-09-11T00:12:21.558Z,56.30
2018-09-11T00:12:53.386Z,56.20
2018-09-11T00:13:25.162Z,56.20
2018-09-11T00:13:56.986Z,56.50
2018-09-11T00:14:28.783Z,56.20
2018-09-11T00:15:00.617Z,56.10
2018-09-11T00:15:32.525Z,56.20
2018-09-11T00:16:04.401Z,56.40
2018-09-11T00:16:36.220Z,56.30
2018-09-11T00:17:08.019Z,56.40
2018-09-11T00:17:39.837Z,56.60
2018-09-11T00:18:11.653Z,56.60
2018-09-11T00:18:43.577Z,56.40
2018-09-11T00:19:15.408Z,56.20
2018-09-11T00:19:47.336Z,56.10
2018-09-11T00:20:19.160Z,56.20
2018-09-11T00:20:50.948Z,56.30
2018-09-11T00:21:22.927Z,56.30
2018-09-11T00:21:54.729Z,56.40
2018-09-11T00:22:26.717Z,56.30
2018-09-11T00:22:58.658Z,56.20
2018-09-11T00:23:30.570Z,56.50
2018-09-11T00:24:02.417Z,56.30
2018-09-11T00:24:34.224Z,56.60
2018-09-11T00:25:06.113Z,56.40
2018-09-11T00:25:37.923Z,56.70
2018-09-11T00:26:09.763Z,56.10
2018-09-11T00:26:41.608Z,56.00
2018-09-11T00:27:13.433Z,56.10
2018-09-11T00:27:45.400Z,56.30
2018-09-11T00:28:17.197Z,56.20
2018-09-11T00:28:49.325Z,56.10
2018-09-11T00:29:21.376Z,56.20
2018-09-11T00:29:53.177Z,56.20
2018-09-11T00:30:24.998Z,56.20
2018-09-11T00:30:56.930Z,56.00
2018-09-11T00:31:28.725Z,55.90
2018-09-11T00:32:00.499Z,56.00
2018-09-11T00:32:32.597Z,56.10
2018-09-11T00:33:04.477Z,56.10
2018-09-11T00:33:36.377Z,56.20
2018-09-11T00:34:08.181Z,56.20
2018-09-11T00:34:40.132Z,56.20
2018-09-11T00:35:12.007Z,56.10
2018-09-11T00:35:43.824Z,56.60
2018-09-11T00:36:15.696Z,56.20
2018-09-11T00:36:47.575Z,56.10
2018-09-11T00:37:19.378Z,56.00
2018-09-11T00:37:51.361Z,56.20
2018-09-11T00:38:23.145Z,56.40
2018-09-11T00:38:54.976Z,56.20
2018-09-11T00:39:26.835Z,56.00
2018-09-11T00:39:58.755Z,56.40
2018-09-11T00:40:30.561Z,56.20
2018-09-11T00:41:02.407Z,56.10
2018-09-11T00:41:34.186Z,56.00
2018-09-11T00:42:06.099Z,56.00
2018-09-11T00:42:37.985Z,56.20
2018-09-11T00:43:09.836Z,56.20
2018-09-11T00:43:41.729Z,56.00
2018-09-11T00:44:13.781Z,56.00
2018-09-11T00:44:45.762Z,56.10
2018-09-11T00:45:17.626Z,56.20
2018-09-11T00:45:49.454Z,56.20
2018-09-11T00:46:21.245Z,56.10
2018-09-11T00:46:53.406Z,56.00
2018-09-11T00:47:25.229Z,56.30
2018-09-11T00:47:57.061Z,56.00
2018-09-11T00:48:29.106Z,56.10
2018-09-11T00:49:00.925Z,55.90
2018-09-11T00:49:32.771Z,56.00
2018-09-11T00:50:04.690Z,56.10
2018-09-11T00:50:36.545Z,56.10
2018-09-11T00:51:08.356Z,56.00
2018-09-11T00:51:40.351Z,56.00
2018-09-11T00:52:12.325Z,55.70
2018-09-11T00:52:44.174Z,56.00
2018-09-11T00:53:16.079Z,55.90
2018-09-11T00:53:48.104Z,55.90
2018-09-11T00:54:20.025Z,56.00
2018-09-11T00:54:51.811Z,56.20
2018-09-11T00:55:23.648Z,56.00
2018-09-11T00:55:55.456Z,55.90
2018-09-11T00:56:27.265Z,55.80
2018-09-11T00:56:59.230Z,56.00
2018-09-11T00:57:31.257Z,55.90
2018-09-11T00:58:03.174Z,55.80
2018-09-11T00:58:34.965Z,55.90
2018-09-11T00:59:06.759Z,55.90
2018-09-11T00:59:38.544Z,56.10
2018-09-11T01:00:10.383Z,56.10
2018-09-11T01:00:42.234Z,56.10
2018-09-11T01:01:14.080Z,56.10
2018-09-11T01:01:45.916Z,56.10
2018-09-11T01:02:17.868Z,56.00
2018-09-11T01:02:49.913Z,55.90
2018-09-11T01:03:21.984Z,56.10
2018-09-11T01:03:53.864Z,55.70
2018-09-11T01:04:25.782Z,55.80
2018-09-11T01:04:57.604Z,55.90
2018-09-11T01:05:29.480Z,55.80
2018-09-11T01:06:01.332Z,55.70
2018-09-11T01:06:33.152Z,55.70
2018-09-11T01:07:05.185Z,55.90
2018-09-11T01:07:36.956Z,55.90
2018-09-11T01:08:08.751Z,56.00
2018-09-11T01:08:40.612Z,55.90
2018-09-11T01:09:12.452Z,55.80
2018-09-11T01:09:44.348Z,56.00
2018-09-11T01:10:16.390Z,56.10
2018-09-11T01:10:48.419Z,56.00
2018-09-11T01:11:20.284Z,56.00
2018-09-11T01:11:52.162Z,56.00
2018-09-11T01:12:24.064Z,56.00
2018-09-11T01:12:55.916Z,55.90
2018-09-11T01:13:27.810Z,55.90
2018-09-11T01:13:59.703Z,55.60
2018-09-11T01:14:31.572Z,55.70
2018-09-11T01:15:03.593Z,55.60
2018-09-11T01:15:35.443Z,55.70
2018-09-11T01:16:07.380Z,55.50
2018-09-11T01:16:39.397Z,55.50
2018-09-11T01:17:11.392Z,55.70
2018-09-11T01:17:43.222Z,55.80
2018-09-11T01:18:15.027Z,55.80
2018-09-11T01:18:46.912Z,55.70
2018-09-11T01:19:18.803Z,55.80
2018-09-11T01:19:50.614Z,55.50
2018-09-11T01:20:22.483Z,55.70
2018-09-11T01:20:54.383Z,55.80
2018-09-11T01:21:26.308Z,55.90
2018-09-11T01:21:58.222Z,55.90
2018-09-11T01:22:30.301Z,55.70
2018-09-11T01:23:02.122Z,55.80
2018-09-11T01:23:34.165Z,55.80
2018-09-11T01:24:06.263Z,55.70
2018-09-11T01:24:38.163Z,55.80
2018-09-11T01:25:10.001Z,55.70
2018-09-11T01:25:41.902Z,55.80
2018-09-11T01:26:13.819Z,55.70
2018-09-11T01:26:45.632Z,55.70
2018-09-11T01:27:17.613Z,55.70
2018-09-11T01:27:49.443Z,55.80
2018-09-11T01:28:21.276Z,55.70
2018-09-11T01:28:53.181Z,55.50
2018-09-11T01:29:24.970Z,55.60
2018-09-11T01:29:56.858Z,55.60
2018-09-11T01:30:28.751Z,55.60
2018-09-11T01:31:00.686Z,55.90
2018-09-11T01:31:32.540Z,55.70
2018-09-11T01:32:04.411Z,55.90
2018-09-11T01:32:36.355Z,55.70
2018-09-11T01:33:08.461Z,55.70
2018-09-11T01:33:40.352Z,55.90
2018-09-11T01:34:12.327Z,55.70
2018-09-11T01:34:44.151Z,55.60
2018-09-11T01:35:15.956Z,55.70
2018-09-11T01:35:47.930Z,55.60
2018-09-11T01:36:19.762Z,55.60
2018-09-11T01:36:51.684Z,55.50
2018-09-11T01:37:23.795Z,55.20
2018-09-11T01:37:56.029Z,55.60
2018-09-11T01:38:28.011Z,55.60
2018-09-11T01:38:59.802Z,55.50
2018-09-11T01:39:31.942Z,55.40
2018-09-11T01:40:03.878Z,55.50
2018-09-11T01:40:35.800Z,55.60
2018-09-11T01:41:07.690Z,55.70
2018-09-11T01:41:39.551Z,55.70
2018-09-11T01:42:11.435Z,55.60
2018-09-11T01:42:43.331Z,55.50
2018-09-11T01:43:15.260Z,55.60
2018-09-11T01:43:47.035Z,55.60
2018-09-11T01:44:18.890Z,55.60
2018-09-11T01:44:50.801Z,55.50
2018-09-11T01:45:22.687Z,55.60
2018-09-11T01:45:54.654Z,55.60
2018-09-11T01:46:26.615Z,55.70
2018-09-11T01:46:58.455Z,55.70
2018-09-11T01:47:30.320Z,56.10
2018-09-11T01:48:02.241Z,55.70
2018-09-11T01:48:34.046Z,55.70
2018-09-11T01:49:05.993Z,55.50
2018-09-11T01:49:37.788Z,55.70
2018-09-11T01:50:09.610Z,55.80
2018-09-11T01:50:41.491Z,55.60
2018-09-11T01:51:13.346Z,55.50
2018-09-11T01:51:45.160Z,55.60
2018-09-11T01:52:16.954Z,55.60
2018-09-11T01:52:48.852Z,55.50
2018-09-11T01:53:20.741Z,55.40
2018-09-11T01:53:52.703Z,55.40
2018-09-11T01:54:24.810Z,55.50
2018-09-11T01:54:56.633Z,55.50
2018-09-11T01:55:28.480Z,55.40
2018-09-11T01:56:00.371Z,55.70
2018-09-11T01:56:32.310Z,55.40
2018-09-11T01:57:04.211Z,55.60
2018-09-11T01:57:36.042Z,55.30
2018-09-11T01:58:08.056Z,55.50
2018-09-11T01:58:39.881Z,55.60
2018-09-11T01:59:11.853Z,55.40
2018-09-11T01:59:43.865Z,55.60
2018-09-11T02:00:15.675Z,55.50
2018-09-11T02:00:47.529Z,55.80
2018-09-11T02:01:19.468Z,55.70
2018-09-11T02:01:51.279Z,55.40
2018-09-11T02:02:23.057Z,55.50
2018-09-11T02:02:55.035Z,55.70
2018-09-11T02:03:26.817Z,55.60
2018-09-11T02:03:58.688Z,55.50
2018-09-11T02:04:30.769Z,55.60
2018-09-11T02:05:02.571Z,55.70
2018-09-11T02:05:34.469Z,55.50
2018-09-11T02:06:06.350Z,55.60
2018-09-11T02:06:38.146Z,55.40
2018-09-11T02:07:09.999Z,55.50
2018-09-11T02:07:41.928Z,55.30
2018-09-11T02:08:13.769Z,55.50
2018-09-11T02:08:45.735Z,55.50
2018-09-11T02:09:17.621Z,55.90
2018-09-11T02:09:49.509Z,55.50
2018-09-11T02:10:21.324Z,55.50
2018-09-11T02:10:53.199Z,55.50
2018-09-11T02:11:25.239Z,55.40
2018-09-11T02:11:57.244Z,55.30
2018-09-11T02:12:29.099Z,55.40
2018-09-11T02:13:00.993Z,55.50
2018-09-11T02:13:32.770Z,55.50
2018-09-11T02:14:04.689Z,55.60
2018-09-11T02:14:36.572Z,55.40
2018-09-11T02:15:08.549Z,55.40
2018-09-11T02:15:40.380Z,55.40
2018-09-11T02:16:12.262Z,55.40
2018-09-11T02:16:44.129Z,55.30
2018-09-11T02:17:15.948Z,55.60
2018-09-11T02:17:47.968Z,56.20
2018-09-11T02:18:19.745Z,55.50
2018-09-11T02:18:51.569Z,55.70
2018-09-11T02:19:23.610Z,56.10
2018-09-11T02:19:55.409Z,55.30
2018-09-11T02:20:27.358Z,55.30
2018-09-11T02:20:59.147Z,55.20
2018-09-11T02:21:30.997Z,55.30
2018-09-11T02:22:02.840Z,55.10
2018-09-11T02:22:34.897Z,55.40
2018-09-11T02:23:06.856Z,55.30
2018-09-11T02:23:38.741Z,55.70
2018-09-11T02:24:10.525Z,55.40
2018-09-11T02:24:42.436Z,55.90
2018-09-11T02:25:14.295Z,55.40
2018-09-11T02:25:46.086Z,55.30
2018-09-11T02:26:18.140Z,55.80
2018-09-11T02:26:50.166Z,55.50
2018-09-11T02:27:22.164Z,55.60
2018-09-11T02:27:54.139Z,55.50
2018-09-11T02:28:26.046Z,55.50
2018-09-11T02:28:57.824Z,55.30
2018-09-11T02:29:29.663Z,55.50
2018-09-11T02:30:01.567Z,55.70
2018-09-11T02:30:33.409Z,55.40
2018-09-11T02:31:05.386Z,55.40
2018-09-11T02:31:37.216Z,55.30
2018-09-11T02:32:09.264Z,55.70
2018-09-11T02:32:41.326Z,55.50
2018-09-11T02:33:13.517Z,55.60
2018-09-11T02:33:45.312Z,55.30
2018-09-11T02:34:17.113Z,55.50
2018-09-11T02:34:48.919Z,55.60
2018-09-11T02:35:21.266Z,55.30
2018-09-11T02:35:53.235Z,55.40
2018-09-11T02:36:25.206Z,55.70
2018-09-11T02:36:57.116Z,55.30
2018-09-11T02:37:29.207Z,55.30
2018-09-11T02:38:01.266Z,55.40
2018-09-11T02:38:33.148Z,55.20
2018-09-11T02:39:05.336Z,55.30
2018-09-11T02:39:37.276Z,55.30
2018-09-11T02:40:09.365Z,55.20
2018-09-11T02:40:41.289Z,55.30
2018-09-11T02:41:13.086Z,55.30
2018-09-11T02:41:45.070Z,55.20
2018-09-11T02:42:17.051Z,55.30
2018-09-11T02:42:48.964Z,55.30
2018-09-11T02:43:20.875Z,55.40
2018-09-11T02:43:52.885Z,55.50
2018-09-11T02:44:24.726Z,55.40
2018-09-11T02:44:56.627Z,55.40
2018-09-11T02:45:28.476Z,55.30
2018-09-11T02:46:00.544Z,55.40
2018-09-11T02:46:32.384Z,55.60
2018-09-11T02:47:04.306Z,55.40
2018-09-11T02:47:36.134Z,55.40
2018-09-11T02:48:07.956Z,55.30
2018-09-11T02:48:39.744Z,55.40
2018-09-11T02:49:11.645Z,55.30
2018-09-11T02:49:43.516Z,55.30
2018-09-11T02:50:15.314Z,55.80
2018-09-11T02:50:47.119Z,55.20
2018-09-11T02:51:19.105Z,55.50
2018-09-11T02:51:51.044Z,55.50
2018-09-11T02:52:22.918Z,55.40
2018-09-11T02:52:54.772Z,55.40
2018-09-11T02:53:26.975Z,55.30
2018-09-11T02:53:58.749Z,55.40
2018-09-11T02:54:30.668Z,55.80
2018-09-11T02:55:02.470Z,55.40
2018-09-11T02:55:34.303Z,55.40
2018-09-11T02:56:06.156Z,55.80
2018-09-11T02:56:38.035Z,55.50
2018-09-11T02:57:10.124Z,55.40
2018-09-11T02:57:42.114Z,55.20
2018-09-11T02:58:14.053Z,55.30
2018-09-11T02:58:46.031Z,55.40
2018-09-11T02:59:17.833Z,55.30
2018-09-11T02:59:49.654Z,55.30
2018-09-11T03:00:21.462Z,55.30
2018-09-11T03:00:53.319Z,55.40
2018-09-11T03:01:25.122Z,55.40
2018-09-11T03:01:56.955Z,55.40
2018-09-11T03:02:28.763Z,55.40
2018-09-11T03:03:00.711Z,55.20
2018-09-11T03:03:32.574Z,55.30
2018-09-11T03:04:04.449Z,55.30
2018-09-11T03:04:36.275Z,55.50
2018-09-11T03:05:08.133Z,55.50
2018-09-11T03:05:40.114Z,55.50
2018-09-11T03:06:11.913Z,55.30
2018-09-11T03:06:43.703Z,55.40
2018-09-11T03:07:15.554Z,55.20
2018-09-11T03:07:47.603Z,55.30
2018-09-11T03:08:19.394Z,55.40
2018-09-11T03:08:51.467Z,55.50
2018-09-11T03:09:23.593Z,55.50
2018-09-11T03:09:55.451Z,55.00
2018-09-11T03:10:27.270Z,55.40
2018-09-11T03:10:59.234Z,55.40
2018-09-11T03:11:31.249Z,55.20
2018-09-11T03:12:03.149Z,55.50
2018-09-11T03:12:35.333Z,55.60
2018-09-11T03:13:07.162Z,55.40
2018-09-11T03:13:38.998Z,55.20
2018-09-11T03:14:10.962Z,56.00
2018-09-11T03:14:42.839Z,56.00
2018-09-11T03:15:14.690Z,55.50
2018-09-11T03:15:46.520Z,55.40
2018-09-11T03:16:18.371Z,55.50
2018-09-11T03:16:50.232Z,55.60
2018-09-11T03:17:22.048Z,55.40
2018-09-11T03:17:53.891Z,55.50
2018-09-11T03:18:25.692Z,55.50
2018-09-11T03:18:57.659Z,55.50
2018-09-11T03:19:29.672Z,55.40
2018-09-11T03:20:01.873Z,55.40
2018-09-11T03:20:33.684Z,55.50
2018-09-11T03:21:05.767Z,55.40
2018-09-11T03:21:37.845Z,55.60
2018-09-11T03:22:09.728Z,55.70
2018-09-11T03:22:41.625Z,55.60
2018-09-11T03:23:13.575Z,55.60
2018-09-11T03:23:45.445Z,55.40
2018-09-11T03:24:17.261Z,55.20
2018-09-11T03:24:49.115Z,55.40
2018-09-11T03:25:20.929Z,55.40
2018-09-11T03:25:52.789Z,55.40
2018-09-11T03:26:24.608Z,55.30
2018-09-11T03:26:56.508Z,55.40
2018-09-11T03:27:28.476Z,55.50
2018-09-11T03:28:00.342Z,55.60
2018-09-11T03:28:32.161Z,55.40
2018-09-11T03:29:04.021Z,55.10
2018-09-11T03:29:35.857Z,55.50
2018-09-11T03:30:07.771Z,55.70
2018-09-11T03:30:39.581Z,55.50
2018-09-11T03:31:11.539Z,55.50
2018-09-11T03:31:43.364Z,55.30
2018-09-11T03:32:15.166Z,55.30
2018-09-11T03:32:47.005Z,55.50
2018-09-11T03:33:19.170Z,55.40
2018-09-11T03:33:50.985Z,55.40
2018-09-11T03:34:22.780Z,55.50
2018-09-11T03:34:54.771Z,55.50
2018-09-11T03:35:26.731Z,55.70
2018-09-11T03:35:58.540Z,55.40
2018-09-11T03:36:30.371Z,55.80
2018-09-11T03:37:02.285Z,56.00
2018-09-11T03:37:34.073Z,55.40
2018-09-11T03:38:05.857Z,55.60
2018-09-11T03:38:37.704Z,55.50
2018-09-11T03:39:09.490Z,55.50
2018-09-11T03:39:41.383Z,55.50
2018-09-11T03:40:13.196Z,55.40
2018-09-11T03:40:45.203Z,55.70
2018-09-11T03:41:17.034Z,55.40
2018-09-11T03:41:48.866Z,55.40
2018-09-11T03:42:20.705Z,55.40
2018-09-11T03:42:52.518Z,55.30
2018-09-11T03:43:24.365Z,55.50
2018-09-11T03:43:56.223Z,55.60
2018-09-11T03:44:28.116Z,55.70
2018-09-11T03:44:59.989Z,55.50
2018-09-11T03:45:31.824Z,55.60
2018-09-11T03:46:03.621Z,55.50
2018-09-11T03:46:35.526Z,55.50
2018-09-11T03:47:07.328Z,55.50
2018-09-11T03:47:39.177Z,55.90
2018-09-11T03:48:11.056Z,55.40
2018-09-11T03:48:42.921Z,55.40
2018-09-11T03:49:14.748Z,55.50
2018-09-11T03:49:46.589Z,55.40
2018-09-11T03:50:18.567Z,55.50
2018-09-11T03:50:50.508Z,55.40
2018-09-11T03:51:22.324Z,55.50
2018-09-11T03:51:54.337Z,55.50
2018-09-11T03:52:26.201Z,55.50
2018-09-11T03:52:58.059Z,55.40
2018-09-11T03:53:29.851Z,55.60
2018-09-11T03:54:01.700Z,55.60
2018-09-11T03:54:33.539Z,55.40
2018-09-11T03:55:05.339Z,55.50
2018-09-11T03:55:37.142Z,55.40
2018-09-11T03:56:09.097Z,55.50
2018-09-11T03:56:40.948Z,55.20
2018-09-11T03:57:12.969Z,55.20
2018-09-11T03:57:44.813Z,55.40
2018-09-11T03:58:16.672Z,55.50
2018-09-11T03:58:48.475Z,55.70
2018-09-11T03:59:20.367Z,55.50
2018-09-11T03:59:52.402Z,55.30
2018-09-11T04:00:24.202Z,55.30
2018-09-11T04:00:56.200Z,55.40
2018-09-11T04:01:28.038Z,55.40
2018-09-11T04:01:59.912Z,55.40
2018-09-11T04:02:31.816Z,55.40
2018-09-11T04:03:03.821Z,55.50
2018-09-11T04:03:35.752Z,55.40
2018-09-11T04:04:07.633Z,55.50
2018-09-11T04:04:39.451Z,55.50
2018-09-11T04:05:11.612Z,55.40
2018-09-11T04:05:43.405Z,55.50
2018-09-11T04:06:15.232Z,55.50
2018-09-11T04:06:47.048Z,55.50
2018-09-11T04:07:18.870Z,55.50
2018-09-11T04:07:50.736Z,55.40
2018-09-11T04:08:22.506Z,55.20
2018-09-11T04:08:54.339Z,55.20
2018-09-11T04:09:26.189Z,55.20
2018-09-11T04:09:58.207Z,55.50
2018-09-11T04:10:30.084Z,55.50
2018-09-11T04:11:01.994Z,55.50
2018-09-11T04:11:33.904Z,55.60
2018-09-11T04:12:05.815Z,55.30
2018-09-11T04:12:37.976Z,55.40
2018-09-11T04:13:09.972Z,55.50
2018-09-11T04:13:42.060Z,55.50
2018-09-11T04:14:13.867Z,55.50
2018-09-11T04:14:45.704Z,55.40
2018-09-11T04:15:17.513Z,55.90
2018-09-11T04:15:49.327Z,55.40
2018-09-11T04:16:21.111Z,55.50
2018-09-11T04:16:53.084Z,55.40
2018-09-11T04:17:24.941Z,55.40
2018-09-11T04:17:56.931Z,55.40
2018-09-11T04:18:28.911Z,55.30
2018-09-11T04:19:00.726Z,55.30
2018-09-11T04:19:32.641Z,55.30
2018-09-11T04:20:04.588Z,55.40
2018-09-11T04:20:36.452Z,55.50
2018-09-11T04:21:08.279Z,55.30
2018-09-11T04:21:40.100Z,55.30
2018-09-11T04:22:12.029Z,55.40
2018-09-11T04:22:44.100Z,55.30
2018-09-11T04:23:16.132Z,55.40
2018-09-11T04:23:48.053Z,55.30
2018-09-11T04:24:19.845Z,55.40
2018-09-11T04:24:51.672Z,55.40
2018-09-11T04:25:23.441Z,55.40
2018-09-11T04:25:55.485Z,55.40
2018-09-11T04:26:27.296Z,55.40
2018-09-11T04:26:59.234Z,55.50
2018-09-11T04:27:31.075Z,55.40
2018-09-11T04:28:02.885Z,55.50
2018-09-11T04:28:34.696Z,55.40
2018-09-11T04:29:06.546Z,55.50
2018-09-11T04:29:38.443Z,55.60
2018-09-11T04:30:10.294Z,55.50
2018-09-11T04:30:42.165Z,55.80
2018-09-11T04:31:14.022Z,55.60
2018-09-11T04:31:45.895Z,55.60
2018-09-11T04:32:17.901Z,55.40
2018-09-11T04:32:49.794Z,55.40
2018-09-11T04:33:21.804Z,55.20
2018-09-11T04:33:53.736Z,55.30
2018-09-11T04:34:25.594Z,55.40
2018-09-11T04:34:57.543Z,56.10
2018-09-11T04:35:29.616Z,55.40
2018-09-11T04:36:01.497Z,55.50
2018-09-11T04:36:33.729Z,55.40
2018-09-11T04:37:05.639Z,55.50
2018-09-11T04:37:37.513Z,55.60
2018-09-11T04:38:09.413Z,55.60
2018-09-11T04:38:41.252Z,55.50
2018-09-11T04:39:13.272Z,55.50
2018-09-11T04:39:45.272Z,55.50
2018-09-11T04:40:17.073Z,55.60
2018-09-11T04:40:48.954Z,55.60
2018-09-11T04:41:21.041Z,55.50
2018-09-11T04:41:52.910Z,55.50
2018-09-11T04:42:24.710Z,55.50
2018-09-11T04:42:56.625Z,55.40
2018-09-11T04:43:28.604Z,55.60
2018-09-11T04:44:00.696Z,55.50
2018-09-11T04:44:32.740Z,55.60
2018-09-11T04:45:04.554Z,55.10
2018-09-11T04:45:36.361Z,55.50
2018-09-11T04:46:08.330Z,55.50
2018-09-11T04:46:40.249Z,55.50
2018-09-11T04:47:12.113Z,55.60
2018-09-11T04:47:43.939Z,55.10
2018-09-11T04:48:15.969Z,55.50
2018-09-11T04:48:47.809Z,55.50
2018-09-11T04:49:19.709Z,55.60
2018-09-11T04:49:51.533Z,55.80
2018-09-11T04:50:23.368Z,55.60
2018-09-11T04:50:55.219Z,55.60
2018-09-11T04:51:27.015Z,55.90
2018-09-11T04:51:58.826Z,55.80
2018-09-11T04:52:30.612Z,55.50
2018-09-11T04:53:02.458Z,56.00
2018-09-11T04:53:34.253Z,55.90
2018-09-11T04:54:06.071Z,55.80
2018-09-11T04:54:37.866Z,55.70
2018-09-11T04:55:09.630Z,55.80
2018-09-11T04:55:41.463Z,55.70
2018-09-11T04:56:13.314Z,55.50
2018-09-11T04:56:45.237Z,55.60
2018-09-11T04:57:17.147Z,55.70
2018-09-11T04:59:07.390Z,55.80
2018-09-11T04:59:39.265Z,55.60
2018-09-11T05:00:11.178Z,55.60
2018-09-11T05:00:43.144Z,55.60
2018-09-11T05:01:15.159Z,55.50
2018-09-11T05:01:47.139Z,55.60
2018-09-11T05:02:18.948Z,55.70
2018-09-11T05:02:50.754Z,55.70
2018-09-11T05:03:22.648Z,55.70
2018-09-11T05:03:54.505Z,55.70
2018-09-11T05:04:26.344Z,55.70
2018-09-11T05:04:58.395Z,55.50
2018-09-11T05:05:30.214Z,55.60
2018-09-11T05:06:02.358Z,55.50
2018-09-11T05:06:34.253Z,55.60
2018-09-11T05:07:06.093Z,55.50
2018-09-11T05:07:37.873Z,55.50
2018-09-11T05:08:09.775Z,55.40
2018-09-11T05:08:41.574Z,55.50
2018-09-11T05:09:13.421Z,55.50
2018-09-11T05:09:45.294Z,55.60
2018-09-11T05:10:17.294Z,56.60
2018-09-11T05:10:49.177Z,57.10
2018-09-11T05:11:21.032Z,57.00
2018-09-11T05:11:52.805Z,57.00
2018-09-11T05:12:24.852Z,57.00
2018-09-11T05:12:56.722Z,56.90
2018-09-11T05:13:28.667Z,57.00
2018-09-11T05:14:00.439Z,57.20
2018-09-11T05:14:32.238Z,57.70
2018-09-11T05:15:04.152Z,57.60
2018-09-11T05:15:35.947Z,57.80
2018-09-11T05:16:07.739Z,57.80
2018-09-11T05:16:39.731Z,57.70
2018-09-11T05:17:11.660Z,57.70
2018-09-11T05:17:43.489Z,57.90
2018-09-11T05:18:15.384Z,57.90
2018-09-11T05:18:47.233Z,58.50
2018-09-11T05:19:19.142Z,58.00
2018-09-11T05:19:51.085Z,58.40
2018-09-11T05:20:22.964Z,58.40
2018-09-11T05:20:54.786Z,58.50
2018-09-11T05:21:26.624Z,58.40
2018-09-11T05:21:58.422Z,58.50
2018-09-11T05:22:30.220Z,58.60
2018-09-11T05:23:02.021Z,58.10
2018-09-11T05:23:34.025Z,58.60
2018-09-11T05:24:06.014Z,58.40
2018-09-11T05:24:37.808Z,58.50
2018-09-11T05:25:09.645Z,58.60
2018-09-11T05:25:41.422Z,59.20
2018-09-11T05:26:13.249Z,58.50
2018-09-11T05:26:45.130Z,58.50
2018-09-11T05:27:17.035Z,58.50
2018-09-11T05:27:49.013Z,59.20
2018-09-11T05:28:21.042Z,58.50
2018-09-11T05:28:53.831Z,58.60
2018-09-11T05:29:25.806Z,58.60
2018-09-11T05:29:57.755Z,58.70
2018-09-11T05:30:29.588Z,58.50
2018-09-11T05:31:01.587Z,58.60
2018-09-11T05:31:33.393Z,58.60
2018-09-11T05:32:05.180Z,58.60
2018-09-11T05:32:37.023Z,58.40
2018-09-11T05:33:08.833Z,58.50
2018-09-11T05:33:40.642Z,58.60
2018-09-11T05:34:12.494Z,58.40
2018-09-11T05:34:44.382Z,59.00
2018-09-11T05:35:16.204Z,59.00
2018-09-11T05:35:47.979Z,58.70
2018-09-11T05:36:19.844Z,58.50
2018-09-11T05:36:51.657Z,58.50
2018-09-11T05:37:23.608Z,58.50
2018-09-11T05:37:55.590Z,58.30
2018-09-11T05:38:27.537Z,58.40
2018-09-11T05:38:59.544Z,58.40
2018-09-11T05:39:31.619Z,59.00
2018-09-11T05:40:03.418Z,58.40
2018-09-11T05:40:35.289Z,58.30
2018-09-11T05:41:07.170Z,58.30
2018-09-11T05:41:39.048Z,58.50
2018-09-11T05:42:11.028Z,58.40
2018-09-11T05:42:42.959Z,58.20
2018-09-11T05:43:14.980Z,58.40
2018-09-11T05:43:46.812Z,58.50
2018-09-11T05:44:18.636Z,58.60
2018-09-11T05:44:50.429Z,58.40
2018-09-11T05:45:22.285Z,58.50
2018-09-11T05:45:54.070Z,58.50
2018-09-11T05:46:25.867Z,58.30
2018-09-11T05:46:57.672Z,58.20
2018-09-11T05:47:29.556Z,58.20
2018-09-11T05:48:01.391Z,58.40
2018-09-11T05:48:33.232Z,58.40
2018-09-11T05:49:05.075Z,58.40
2018-09-11T05:49:37.043Z,58.30
2018-09-11T05:50:08.976Z,58.30
2018-09-11T05:50:40.763Z,58.30
2018-09-11T05:51:13.063Z,58.20
2018-09-11T05:51:45.109Z,58.40
2018-09-11T05:52:17.013Z,58.20
2018-09-11T05:52:48.803Z,58.20
2018-09-11T05:53:20.595Z,58.20
2018-09-11T05:53:52.466Z,58.30
2018-09-11T05:54:24.272Z,58.30
2018-09-11T05:54:56.125Z,58.30
2018-09-11T05:55:28.148Z,58.30
2018-09-11T05:55:59.995Z,58.30
2018-09-11T05:56:32.093Z,58.20
2018-09-11T05:57:03.946Z,58.20
2018-09-11T05:57:35.756Z,58.20
2018-09-11T05:58:07.577Z,58.20
2018-09-11T05:58:39.596Z,58.40
2018-09-11T05:59:11.429Z,58.90
2018-09-11T05:59:43.252Z,58.40
2018-09-11T06:00:15.087Z,58.50
2018-09-11T06:00:46.957Z,58.20
2018-09-11T06:01:18.838Z,58.40
2018-09-11T06:01:50.779Z,58.30
2018-09-11T06:02:22.768Z,59.00
2018-09-11T06:02:54.613Z,58.70
2018-09-11T06:03:27.337Z,58.30
2018-09-11T06:03:59.269Z,58.30
2018-09-11T06:04:31.289Z,58.30
2018-09-11T06:05:03.148Z,58.50
2018-09-11T06:05:35.053Z,58.60
2018-09-11T06:06:07.231Z,58.10
2018-09-11T06:06:39.096Z,58.30
2018-09-11T06:07:10.989Z,58.30
2018-09-11T06:07:42.802Z,58.20
2018-09-11T06:08:14.638Z,58.70
2018-09-11T06:08:46.513Z,58.20
2018-09-11T06:09:18.348Z,58.10
2018-09-11T06:09:50.321Z,58.10
2018-09-11T06:10:22.142Z,58.00
2018-09-11T06:10:53.983Z,58.80
2018-09-11T06:11:25.815Z,58.10
2018-09-11T06:11:57.661Z,58.10
2018-09-11T06:12:29.456Z,58.20
2018-09-11T06:13:01.276Z,58.20
2018-09-11T06:13:33.420Z,58.10
2018-09-11T06:14:05.255Z,58.10
2018-09-11T06:14:37.032Z,58.20
2018-09-11T06:15:08.884Z,58.20
2018-09-11T06:15:40.671Z,58.10
2018-09-11T06:16:12.612Z,58.20
2018-09-11T06:16:44.616Z,58.20
2018-09-11T06:17:16.433Z,58.00
2018-09-11T06:17:48.264Z,58.10
2018-09-11T06:18:20.037Z,58.10
2018-09-11T06:18:51.905Z,58.10
2018-09-11T06:19:23.754Z,58.00
2018-09-11T06:19:55.655Z,58.00
2018-09-11T06:20:27.511Z,58.00
2018-09-11T06:20:59.347Z,58.10
2018-09-11T06:21:31.111Z,58.10
2018-09-11T06:22:03.024Z,58.00
2018-09-11T06:22:34.813Z,58.10
2018-09-11T06:23:06.631Z,58.00
2018-09-11T06:23:38.549Z,58.10
2018-09-11T06:24:10.509Z,58.00
2018-09-11T06:24:42.376Z,58.10
2018-09-11T06:25:14.179Z,58.00
2018-09-11T06:25:45.984Z,58.00
2018-09-11T06:26:18.096Z,58.60
2018-09-11T06:26:49.855Z,58.20
2018-09-11T06:27:21.838Z,58.00
2018-09-11T06:27:53.640Z,57.90
2018-09-11T06:28:25.487Z,57.80
2018-09-11T06:28:57.312Z,58.00
2018-09-11T06:29:29.329Z,57.90
2018-09-11T06:30:01.156Z,57.90
2018-09-11T06:30:32.970Z,57.80
2018-09-11T06:31:04.839Z,57.70
2018-09-11T06:31:36.700Z,57.80
2018-09-11T06:32:08.681Z,57.60
2018-09-11T06:32:40.530Z,57.60
2018-09-11T06:33:12.443Z,57.70
2018-09-11T06:33:44.240Z,57.70
2018-09-11T06:34:16.127Z,57.70
2018-09-11T06:34:47.934Z,57.70
2018-09-11T06:35:19.829Z,57.60
2018-09-11T06:35:51.696Z,57.60
2018-09-11T06:36:23.537Z,57.60
2018-09-11T06:36:55.371Z,57.60
2018-09-11T06:37:27.624Z,57.60
2018-09-11T06:37:59.453Z,57.50
2018-09-11T06:38:31.314Z,57.50
2018-09-11T06:39:03.352Z,57.50
2018-09-11T06:39:35.239Z,57.60
2018-09-11T06:40:07.072Z,57.50
2018-09-11T06:40:39.135Z,57.50
2018-09-11T06:41:10.975Z,57.40
2018-09-11T06:41:43.020Z,57.30
2018-09-11T06:42:15.063Z,57.30
2018-09-11T06:42:46.904Z,57.40
2018-09-11T06:43:18.826Z,57.40
2018-09-11T06:43:50.675Z,57.30
2018-09-11T06:44:22.669Z,57.20
2018-09-11T06:44:54.605Z,57.30
2018-09-11T06:45:26.598Z,57.30
2018-09-11T06:45:58.456Z,57.20
2018-09-11T06:46:30.287Z,57.30
2018-09-11T06:47:02.181Z,57.30
2018-09-11T06:47:34.142Z,57.30
2018-09-11T06:48:05.921Z,57.30
2018-09-11T06:48:37.899Z,57.30
2018-09-11T06:49:09.825Z,57.30
2018-09-11T06:49:41.828Z,57.40
2018-09-11T06:50:13.749Z,57.30
2018-09-11T06:50:45.668Z,57.20
2018-09-11T06:51:17.481Z,57.70
2018-09-11T06:51:49.331Z,57.10